Springboro, Pennsylvania
Current Conditions -  °F | °C
As of 6:53 PM on Thursday 18 Dec 2014 (Local Time) from KGKJ Reporting Station
Haze Haze  
Wind Chill: 23°   Ceiling: 700
Heat Index: 28°   Visibility: 4mi
Dew Point: 24°   Wind: 5mph
Humidity: 85%   Direction: 230°SW
Pressure: 30.11"   Gusts: NA
Location:  41.8°N, 80.37°W
Report Text: KGKJ 182353Z AUTO 23004KT 4SM BR OVC007 M02/M04 A3011 RMK AO2 SLP211 60000 I1000 I6000 T10221044 11022 21022 51003 TSNO
Loading
Personal Weather Stations






























Interactive Weather Map New forecast layout! Learn more

10-Day Weather Forecast

Advertisements
Track Severe Weather on mobile